createdAt,value
2019-03-18T00:00:07.737Z,85.92
2019-03-18T00:02:35.089Z,86.99
2019-03-18T00:05:02.475Z,85.30
2019-03-18T00:07:29.823Z,86.52
2019-03-18T00:09:57.157Z,85.79
2019-03-18T00:12:24.542Z,88.52
2019-03-18T00:15:00.752Z,86.58
2019-03-18T00:17:21.235Z,86.74
2019-03-18T00:19:48.829Z,83.92
2019-03-18T00:22:16.264Z,83.89
2019-03-18T00:24:43.928Z,85.97
2019-03-18T00:27:11.562Z,85.69
2019-03-18T00:29:39.081Z,88.60
2019-03-18T00:32:06.382Z,89.42
2019-03-18T00:34:33.701Z,86.81
2019-03-18T00:37:01.076Z,84.99
2019-03-18T00:39:28.443Z,85.08
2019-03-18T00:41:56.263Z,84.21
2019-03-18T00:44:23.670Z,86.02
2019-03-18T00:46:51.012Z,86.88
2019-03-18T00:49:18.337Z,86.57
2019-03-18T00:51:45.705Z,88.69
2019-03-18T00:54:13.092Z,88.91
2019-03-18T00:56:40.423Z,87.42
2019-03-18T00:59:07.767Z,87.61
2019-03-18T01:01:35.863Z,88.30
2019-03-18T01:04:03.206Z,89.90
2019-03-18T01:06:30.547Z,88.83
2019-03-18T01:08:57.914Z,89.04
2019-03-18T01:11:25.268Z,89.79
2019-03-18T01:13:52.608Z,89.81
2019-03-18T01:16:20.022Z,89.51
2019-03-18T01:18:47.328Z,89.91
2019-03-18T01:21:14.684Z,90.52
2019-03-18T01:23:42.056Z,90.50
2019-03-18T01:26:09.415Z,89.90
2019-03-18T01:28:36.814Z,90.00
2019-03-18T01:31:04.138Z,90.74
2019-03-18T01:33:31.490Z,91.10
2019-03-18T01:35:58.858Z,90.73
2019-03-18T01:38:26.168Z,89.15
2019-03-18T01:40:53.514Z,89.33
2019-03-18T01:43:20.910Z,89.03
2019-03-18T01:45:48.329Z,88.08
2019-03-18T01:48:15.641Z,89.12
2019-03-18T01:50:42.979Z,88.46
2019-03-18T01:53:10.348Z,88.76
2019-03-18T01:55:37.686Z,86.50
2019-03-18T01:58:04.978Z,86.45
2019-03-18T02:00:32.352Z,86.07
2019-03-18T02:02:59.710Z,86.98
2019-03-18T02:05:27.061Z,88.28
2019-03-18T02:07:54.400Z,89.79
2019-03-18T02:10:21.729Z,90.12
2019-03-18T02:12:49.063Z,89.27
2019-03-18T02:15:16.430Z,89.63
2019-03-18T02:17:43.828Z,89.32
2019-03-18T02:20:11.246Z,88.64
2019-03-18T02:22:38.570Z,87.42
2019-03-18T02:25:05.940Z,88.95
2019-03-18T02:27:33.223Z,89.54
2019-03-18T02:30:00.588Z,89.77
2019-03-18T02:32:27.862Z,89.46
2019-03-18T02:34:55.164Z,88.71
2019-03-18T02:37:22.514Z,87.56
2019-03-18T02:39:49.814Z,85.07
2019-03-18T02:42:17.153Z,86.65
2019-03-18T02:44:44.465Z,85.96
2019-03-18T02:47:11.783Z,87.37
2019-03-18T02:49:39.057Z,85.41
2019-03-18T02:52:06.497Z,83.46
2019-03-18T02:54:33.791Z,84.76
2019-03-18T02:57:01.090Z,87.53
2019-03-18T02:59:28.435Z,87.83
2019-03-18T03:01:55.987Z,88.79
2019-03-18T03:04:23.506Z,88.42
2019-03-18T03:06:50.829Z,87.57
2019-03-18T03:09:18.129Z,87.56
2019-03-18T03:11:45.509Z,88.59
2019-03-18T03:14:12.831Z,85.88
2019-03-18T03:16:40.168Z,84.54
2019-03-18T03:19:07.459Z,82.98
2019-03-18T03:21:34.800Z,83.56
2019-03-18T03:24:02.145Z,83.67
2019-03-18T03:26:29.525Z,83.10
2019-03-18T03:28:56.905Z,83.87
2019-03-18T03:31:24.205Z,83.90
2019-03-18T03:33:51.582Z,83.42
2019-03-18T03:36:18.952Z,83.97
2019-03-18T03:38:46.299Z,86.14
2019-03-18T03:41:17.536Z,85.50
2019-03-18T03:43:42.758Z,85.03
2019-03-18T03:46:10.098Z,86.04
2019-03-18T03:48:37.460Z,87.56
2019-03-18T03:51:04.791Z,88.75
2019-03-18T03:53:32.149Z,89.29
2019-03-18T03:56:00.652Z,89.04
2019-03-18T03:58:28.109Z,87.30
2019-03-18T04:00:55.470Z,87.68
2019-03-18T04:03:37.783Z,86.72
2019-03-18T04:05:51.917Z,84.94
2019-03-18T04:08:19.344Z,85.44
2019-03-18T04:10:46.687Z,86.49
2019-03-18T04:13:13.989Z,87.35
2019-03-18T04:15:41.293Z,87.03
2019-03-18T04:18:08.607Z,86.97
2019-03-18T04:20:35.905Z,86.65
2019-03-18T04:23:03.207Z,87.96
2019-03-18T04:25:30.524Z,87.86
2019-03-18T04:27:58.836Z,89.14
2019-03-18T04:30:26.188Z,88.73
2019-03-18T04:32:53.546Z,86.36
2019-03-18T04:35:20.839Z,86.01
2019-03-18T04:37:48.152Z,87.80
2019-03-18T04:40:15.492Z,88.27
2019-03-18T04:42:42.784Z,89.49
2019-03-18T04:45:10.278Z,86.87
2019-03-18T04:47:37.648Z,85.58
2019-03-18T04:50:05.534Z,86.28
2019-03-18T04:52:32.864Z,88.49
2019-03-18T04:55:00.357Z,89.07
2019-03-18T04:57:27.750Z,87.38
2019-03-18T04:59:55.040Z,87.92
2019-03-18T05:02:22.428Z,88.79
2019-03-18T05:04:49.728Z,89.67
2019-03-18T05:07:17.107Z,90.21
2019-03-18T05:09:44.423Z,88.76
2019-03-18T05:12:11.847Z,88.59
2019-03-18T05:14:39.127Z,88.04
2019-03-18T05:17:06.408Z,89.96
2019-03-18T05:19:33.707Z,90.60
2019-03-18T05:22:01.066Z,90.79
2019-03-18T05:24:28.406Z,91.50
2019-03-18T05:26:55.724Z,91.81
2019-03-18T05:29:23.105Z,91.73
2019-03-18T05:31:51.857Z,91.39
2019-03-18T05:34:19.384Z,88.74
2019-03-18T05:36:46.723Z,87.21
2019-03-18T05:39:14.038Z,86.55
2019-03-18T05:41:41.403Z,87.76
2019-03-18T05:44:08.735Z,89.58
2019-03-18T05:46:36.019Z,90.23
2019-03-18T05:49:03.388Z,88.90
2019-03-18T05:51:30.707Z,87.83
2019-03-18T05:53:58.119Z,87.39
2019-03-18T05:56:25.758Z,88.52
2019-03-18T05:58:53.067Z,90.50
2019-03-18T06:01:20.446Z,91.18
2019-03-18T06:03:47.767Z,90.65
2019-03-18T06:06:15.485Z,89.73
2019-03-18T06:08:42.838Z,89.78
2019-03-18T06:11:10.203Z,89.65
2019-03-18T06:13:41.000Z,89.86
2019-03-18T06:16:08.428Z,88.94
2019-03-18T06:18:35.757Z,89.24
2019-03-18T06:21:03.096Z,89.72
2019-03-18T06:23:30.398Z,89.31
2019-03-18T06:25:57.786Z,89.91
2019-03-18T06:28:25.083Z,90.48
2019-03-18T06:30:52.384Z,90.39
2019-03-18T06:33:19.744Z,90.57
2019-03-18T06:35:47.049Z,90.21
2019-03-18T06:38:14.408Z,88.97
2019-03-18T06:40:41.704Z,89.41
2019-03-18T06:43:08.997Z,89.04
2019-03-18T06:45:36.354Z,88.14
2019-03-18T06:48:05.180Z,88.31
2019-03-18T06:50:32.596Z,89.79
2019-03-18T06:52:59.944Z,90.09
2019-03-18T06:55:27.298Z,88.80
2019-03-18T06:57:54.589Z,87.99
2019-03-18T07:00:21.887Z,89.12
2019-03-18T07:02:49.468Z,90.37
2019-03-18T07:05:16.776Z,91.25
2019-03-18T07:07:44.045Z,90.31
2019-03-18T07:10:11.478Z,89.48
2019-03-18T07:12:38.765Z,88.06
2019-03-18T07:15:06.141Z,87.85
2019-03-18T07:17:33.460Z,89.36
2019-03-18T07:20:00.794Z,88.82
2019-03-18T07:22:28.184Z,90.25
2019-03-18T07:24:55.564Z,89.44
2019-03-18T07:27:22.947Z,88.93
2019-03-18T07:29:50.267Z,90.10
2019-03-18T07:32:17.566Z,89.90
2019-03-18T07:34:44.944Z,89.10
2019-03-18T07:37:12.276Z,88.71
2019-03-18T07:39:39.587Z,88.76
2019-03-18T07:42:06.866Z,88.09
2019-03-18T07:44:34.206Z,87.00
2019-03-18T07:47:01.596Z,86.83
2019-03-18T07:49:28.976Z,86.96
2019-03-18T07:51:56.324Z,86.22
2019-03-18T07:54:32.757Z,86.11
2019-03-18T07:56:53.349Z,86.73
2019-03-18T07:59:20.724Z,87.34
2019-03-18T08:01:48.065Z,87.11
2019-03-18T08:04:15.428Z,87.76
2019-03-18T08:06:42.771Z,87.27
2019-03-18T08:09:10.272Z,86.44
2019-03-18T08:11:37.687Z,86.59
2019-03-18T08:14:05.013Z,88.13
2019-03-18T08:16:32.356Z,88.68
2019-03-18T08:18:59.691Z,87.74
2019-03-18T08:21:26.988Z,88.90
2019-03-18T08:23:54.328Z,89.44
2019-03-18T08:26:21.664Z,88.95
2019-03-18T08:28:48.974Z,87.01
2019-03-18T08:31:16.275Z,86.57
2019-03-18T08:33:43.644Z,83.72
2019-03-18T08:36:11.238Z,84.12
2019-03-18T08:38:38.572Z,85.13
2019-03-18T08:41:05.849Z,83.97
2019-03-18T08:43:33.156Z,82.12
2019-03-18T08:46:00.457Z,82.58
2019-03-18T08:48:27.765Z,84.45
2019-03-18T08:50:55.051Z,83.00
2019-03-18T08:53:22.323Z,83.86
2019-03-18T08:55:49.673Z,83.16
2019-03-18T08:58:16.934Z,83.41
2019-03-18T09:00:44.281Z,84.34
2019-03-18T09:03:11.554Z,84.19
2019-03-18T09:05:38.867Z,83.62
2019-03-18T09:08:06.542Z,83.38
2019-03-18T09:10:33.851Z,83.17
2019-03-18T09:13:01.135Z,84.30
2019-03-18T09:15:28.430Z,85.62
2019-03-18T09:17:55.715Z,84.47
2019-03-18T09:20:22.977Z,84.85
2019-03-18T09:22:50.257Z,84.35
2019-03-18T09:25:17.518Z,83.73
2019-03-18T09:27:44.841Z,84.30
2019-03-18T09:30:12.274Z,84.23
2019-03-18T09:32:39.629Z,83.94
2019-03-18T09:35:06.993Z,83.14
2019-03-18T09:37:36.856Z,82.26
2019-03-18T09:40:04.724Z,84.10
2019-03-18T09:42:32.006Z,83.92
2019-03-18T09:44:59.317Z,82.85
2019-03-18T09:47:26.614Z,84.00
2019-03-18T09:49:53.901Z,84.13
2019-03-18T09:52:21.237Z,85.98
2019-03-18T09:54:48.530Z,84.48
2019-03-18T09:57:25.290Z,82.73
2019-03-18T09:59:45.088Z,83.52
2019-03-18T10:02:12.426Z,83.08
2019-03-18T10:04:39.721Z,84.86
2019-03-18T10:07:07.030Z,85.16
2019-03-18T10:09:37.343Z,84.26
2019-03-18T10:12:04.645Z,85.09
2019-03-18T10:14:31.946Z,84.20
2019-03-18T10:17:09.008Z,83.15
2019-03-18T10:19:33.414Z,83.30
2019-03-18T10:21:57.719Z,83.66
2019-03-18T10:24:25.003Z,82.47
2019-03-18T10:26:55.216Z,81.62
2019-03-18T10:29:22.494Z,81.19
2019-03-18T10:31:49.825Z,83.44
2019-03-18T10:34:17.200Z,82.87
2019-03-18T10:36:44.454Z,82.71
2019-03-18T10:39:11.778Z,81.94
2019-03-18T10:41:39.065Z,82.92
2019-03-18T10:44:06.375Z,83.75
2019-03-18T10:46:33.673Z,82.71
2019-03-18T10:49:01.048Z,82.80
2019-03-18T10:51:28.383Z,82.67
2019-03-18T10:53:55.660Z,80.52
2019-03-18T10:56:22.971Z,81.22
2019-03-18T10:58:50.330Z,79.25
2019-03-18T11:01:17.727Z,79.05
2019-03-18T11:03:45.060Z,77.05
2019-03-18T11:06:12.513Z,77.92
2019-03-18T11:08:39.874Z,79.27
2019-03-18T11:11:07.183Z,80.32
2019-03-18T11:13:34.520Z,80.60
2019-03-18T11:16:02.284Z,79.77
2019-03-18T11:18:29.560Z,80.89
2019-03-18T11:20:56.919Z,80.25
2019-03-18T11:23:24.316Z,82.65
2019-03-18T11:25:51.817Z,86.14
2019-03-18T11:28:19.157Z,87.27
2019-03-18T11:30:46.588Z,86.15
2019-03-18T11:33:13.936Z,87.44
2019-03-18T11:35:41.250Z,87.97
2019-03-18T11:38:08.619Z,89.53
2019-03-18T11:40:35.905Z,88.17
2019-03-18T11:43:05.459Z,87.42
2019-03-18T11:45:32.846Z,86.51
2019-03-18T11:48:00.158Z,86.26
2019-03-18T11:50:27.461Z,87.56
2019-03-18T11:52:54.868Z,85.69
2019-03-18T11:55:22.290Z,85.83
2019-03-18T11:57:49.644Z,86.73
2019-03-18T12:00:17.125Z,85.53
2019-03-18T12:02:44.528Z,83.50
2019-03-18T12:05:13.626Z,83.89
2019-03-18T12:07:41.017Z,86.30
2019-03-18T12:10:10.288Z,87.53
2019-03-18T12:12:37.690Z,85.47
2019-03-18T12:15:05.838Z,86.90
2019-03-18T12:17:33.167Z,86.32
2019-03-18T12:20:00.537Z,85.71
2019-03-18T12:22:27.979Z,84.72
2019-03-18T12:24:55.325Z,83.81
2019-03-18T12:27:22.659Z,84.95
2019-03-18T12:29:50.050Z,85.10
2019-03-18T12:32:17.432Z,83.19
2019-03-18T12:34:44.807Z,83.33
2019-03-18T12:37:12.211Z,83.72
2019-03-18T12:39:39.549Z,82.07
2019-03-18T12:42:06.989Z,81.19
2019-03-18T12:44:34.304Z,78.58
2019-03-18T12:47:01.652Z,81.56
2019-03-18T12:49:29.040Z,78.88
2019-03-18T12:51:56.452Z,80.69
2019-03-18T12:54:23.848Z,77.99
2019-03-18T12:56:51.204Z,77.39
2019-03-18T12:59:20.357Z,75.90
2019-03-18T13:01:47.799Z,78.31
2019-03-18T13:04:15.246Z,78.27
2019-03-18T13:06:42.572Z,78.23
2019-03-18T13:09:09.891Z,79.24
2019-03-18T13:11:37.216Z,72.17
2019-03-18T13:14:04.712Z,68.86
2019-03-18T13:16:32.056Z,71.50
2019-03-18T13:18:59.437Z,71.08
2019-03-18T13:21:26.828Z,67.74
2019-03-18T13:23:54.189Z,68.39
2019-03-18T13:26:21.530Z,70.34
2019-03-18T13:28:48.887Z,65.91
2019-03-18T13:31:16.356Z,64.35
2019-03-18T13:33:43.704Z,61.09
2019-03-18T13:36:11.069Z,60.72
2019-03-18T13:38:38.490Z,61.41
2019-03-18T13:41:05.829Z,64.51
2019-03-18T13:43:33.205Z,65.34
2019-03-18T13:46:00.578Z,67.20
2019-03-18T13:48:27.947Z,64.39
2019-03-18T13:50:55.304Z,58.77
2019-03-18T13:53:22.646Z,62.40
2019-03-18T13:55:50.010Z,61.62
2019-03-18T13:58:17.452Z,62.70
2019-03-18T14:00:45.253Z,64.41
2019-03-18T14:03:12.596Z,62.92
2019-03-18T14:05:39.958Z,56.29
2019-03-18T14:08:07.340Z,61.13
2019-03-18T14:10:34.759Z,65.21
2019-03-18T14:13:02.407Z,58.67
2019-03-18T14:15:29.739Z,63.78
2019-03-18T14:17:57.087Z,64.80
2019-03-18T14:20:24.426Z,57.79
2019-03-18T14:22:51.908Z,59.32
2019-03-18T14:25:19.266Z,55.40
2019-03-18T14:27:46.661Z,61.77
2019-03-18T14:30:15.023Z,62.33
2019-03-18T14:32:42.440Z,68.06
2019-03-18T14:35:10.173Z,68.59
2019-03-18T14:37:37.672Z,64.60
2019-03-18T14:40:06.929Z,63.69
2019-03-18T14:42:34.743Z,60.41
2019-03-18T14:45:02.171Z,56.83
2019-03-18T14:47:29.567Z,59.38
2019-03-18T14:49:57.088Z,47.80
2019-03-18T14:52:24.547Z,56.94
2019-03-18T14:54:51.824Z,56.49
2019-03-18T14:57:19.272Z,50.92
2019-03-18T14:59:46.797Z,47.27
2019-03-18T15:02:14.324Z,47.52
2019-03-18T15:04:41.751Z,45.71
2019-03-18T15:07:09.640Z,48.90
2019-03-18T15:09:37.257Z,51.29
2019-03-18T15:12:04.823Z,52.64
2019-03-18T15:14:32.323Z,53.42
2019-03-18T15:17:02.573Z,53.92
2019-03-18T15:19:30.171Z,53.73
2019-03-18T15:21:58.822Z,55.93
2019-03-18T15:24:26.525Z,54.90
2019-03-18T15:26:54.044Z,59.87
2019-03-18T15:29:21.418Z,60.38
2019-03-18T15:31:48.803Z,70.38
2019-03-18T15:34:16.224Z,70.70
2019-03-18T15:36:43.731Z,69.18
2019-03-18T15:39:11.396Z,68.32
2019-03-18T15:41:38.964Z,69.00
2019-03-18T15:44:06.572Z,67.07
2019-03-18T15:46:34.186Z,68.12
2019-03-18T15:49:03.061Z,67.15
2019-03-18T15:51:31.811Z,70.31
2019-03-18T15:53:59.539Z,72.82
2019-03-18T15:56:27.111Z,73.92
2019-03-18T15:58:55.217Z,73.77
2019-03-18T16:01:22.828Z,71.57
2019-03-18T16:03:50.583Z,71.22
2019-03-18T16:06:18.188Z,69.01
2019-03-18T16:08:45.786Z,63.03
2019-03-18T16:11:13.472Z,62.39
2019-03-18T16:13:41.136Z,64.12
2019-03-18T16:16:08.743Z,63.90
2019-03-18T16:18:36.527Z,64.13
2019-03-18T16:21:04.377Z,65.13
2019-03-18T16:23:31.962Z,62.68
2019-03-18T16:25:59.614Z,62.71
2019-03-18T16:28:27.254Z,64.01
2019-03-18T16:30:54.987Z,64.53
2019-03-18T16:33:22.734Z,66.69
2019-03-18T16:35:50.524Z,67.06
2019-03-18T16:38:18.235Z,69.63
2019-03-18T16:40:45.895Z,69.42
2019-03-18T16:43:15.334Z,71.25
2019-03-18T16:45:42.947Z,71.42
2019-03-18T16:48:10.637Z,67.27
2019-03-18T16:50:38.445Z,70.74
2019-03-18T16:53:06.215Z,71.32
2019-03-18T16:55:33.865Z,70.92
2019-03-18T16:58:01.464Z,72.22
2019-03-18T17:00:29.179Z,72.76
2019-03-18T17:02:56.804Z,74.71
2019-03-18T17:05:24.502Z,74.08
2019-03-18T17:07:54.175Z,75.12
2019-03-18T17:10:21.785Z,74.28
2019-03-18T17:12:49.424Z,75.35
2019-03-18T17:15:17.306Z,74.95
2019-03-18T17:17:44.963Z,75.50
2019-03-18T17:20:12.861Z,75.17
2019-03-18T17:22:48.597Z,75.65
2019-03-18T17:25:12.830Z,75.32
2019-03-18T17:27:40.502Z,76.03
2019-03-18T17:30:11.770Z,76.60
2019-03-18T17:32:39.548Z,76.33
2019-03-18T17:35:07.348Z,76.36
2019-03-18T17:37:35.383Z,75.70
2019-03-18T17:40:03.315Z,77.84
2019-03-18T17:42:31.148Z,77.25
2019-03-18T17:44:58.903Z,76.23
2019-03-18T17:47:26.689Z,77.35
2019-03-18T17:49:54.475Z,77.31
2019-03-18T17:52:22.233Z,78.41
2019-03-18T17:54:50.781Z,78.20
2019-03-18T17:57:18.497Z,77.27
2019-03-18T17:59:46.108Z,76.97
2019-03-18T18:02:13.927Z,77.60
2019-03-18T18:04:41.588Z,78.89
2019-03-18T18:07:09.239Z,78.56
2019-03-18T18:09:36.944Z,78.97
2019-03-18T18:12:07.126Z,78.22
2019-03-18T18:14:34.811Z,78.44
2019-03-18T18:17:02.631Z,78.87
2019-03-18T18:19:30.288Z,79.82
2019-03-18T18:21:59.410Z,80.45
2019-03-18T18:24:27.137Z,79.15
2019-03-18T18:26:54.796Z,80.06
2019-03-18T18:29:22.523Z,80.40
2019-03-18T18:31:50.204Z,78.42
2019-03-18T18:34:17.864Z,74.87
2019-03-18T18:36:45.644Z,75.20
2019-03-18T18:39:13.827Z,75.78
2019-03-18T18:41:41.903Z,75.17
2019-03-18T18:44:09.670Z,74.63
2019-03-18T18:46:40.906Z,73.64
2019-03-18T18:49:08.559Z,72.38
2019-03-18T18:51:36.465Z,72.90
2019-03-18T18:54:04.445Z,74.52
2019-03-18T18:56:32.297Z,75.84
2019-03-18T18:58:59.960Z,72.61
2019-03-18T19:01:27.744Z,74.14
2019-03-18T19:03:55.525Z,79.14
2019-03-18T19:06:23.359Z,77.61
2019-03-18T19:08:51.361Z,78.23
2019-03-18T19:11:19.188Z,78.22
2019-03-18T19:13:46.853Z,78.11
2019-03-18T19:16:15.865Z,79.00
2019-03-18T19:18:44.744Z,79.72
2019-03-18T19:21:12.577Z,80.30
2019-03-18T19:23:40.459Z,79.84
2019-03-18T19:26:08.744Z,80.28
2019-03-18T19:28:36.482Z,80.95
2019-03-18T19:31:04.260Z,80.19
2019-03-18T19:33:32.115Z,80.75
2019-03-18T19:36:00.075Z,79.71
2019-03-18T19:38:27.949Z,80.03
2019-03-18T19:40:55.738Z,80.74
2019-03-18T19:43:24.128Z,81.21
2019-03-18T19:45:53.083Z,81.45
2019-03-18T19:48:20.750Z,80.99
2019-03-18T19:50:48.981Z,80.94
2019-03-18T19:53:16.845Z,80.57
2019-03-18T19:55:44.702Z,81.13
2019-03-18T19:58:14.379Z,81.04
2019-03-18T20:00:42.050Z,81.49
2019-03-18T20:03:10.169Z,81.80
2019-03-18T20:05:37.830Z,81.67
2019-03-18T20:08:05.609Z,82.45
2019-03-18T20:10:33.702Z,81.94
2019-03-18T20:13:04.815Z,82.94
2019-03-18T20:15:32.154Z,82.48
2019-03-18T20:18:00.183Z,81.96
2019-03-18T20:20:27.907Z,80.98
2019-03-18T20:22:56.144Z,80.48
2019-03-18T20:25:24.097Z,82.41
2019-03-18T20:27:51.957Z,82.25
2019-03-18T20:30:19.919Z,81.28
2019-03-18T20:32:47.830Z,80.97
2019-03-18T20:35:15.762Z,82.55
2019-03-18T20:37:43.631Z,82.57
2019-03-18T20:40:12.289Z,82.35
2019-03-18T20:42:40.037Z,80.93
2019-03-18T20:45:10.470Z,83.06
2019-03-18T20:47:38.455Z,82.68
2019-03-18T20:50:09.101Z,82.46
2019-03-18T20:52:36.933Z,83.54
2019-03-18T20:55:05.711Z,82.89
2019-03-18T20:57:33.426Z,83.23
2019-03-18T21:00:01.257Z,82.25
2019-03-18T21:02:29.038Z,81.88
2019-03-18T21:04:56.664Z,81.61
2019-03-18T21:07:24.358Z,82.34
2019-03-18T21:09:52.222Z,83.42
2019-03-18T21:12:20.067Z,82.34
2019-03-18T21:14:47.761Z,81.35
2019-03-18T21:17:15.894Z,82.37
2019-03-18T21:19:43.510Z,81.43
2019-03-18T21:22:11.169Z,82.60
2019-03-18T21:24:39.007Z,83.77
2019-03-18T21:27:06.646Z,82.43
2019-03-18T21:29:34.392Z,81.68
2019-03-18T21:32:02.507Z,83.01
2019-03-18T21:34:30.341Z,83.60
2019-03-18T21:36:57.871Z,82.17
2019-03-18T21:39:25.596Z,83.29
2019-03-18T21:41:53.294Z,84.07
2019-03-18T21:44:20.863Z,84.89
2019-03-18T21:46:48.436Z,85.14
2019-03-18T21:49:16.049Z,84.62
2019-03-18T21:51:43.629Z,82.54
2019-03-18T21:54:11.153Z,83.77
2019-03-18T21:56:38.577Z,84.73
2019-03-18T21:59:06.171Z,83.37
2019-03-18T22:01:33.521Z,83.89
2019-03-18T22:04:00.908Z,85.31
2019-03-18T22:06:28.304Z,85.89
2019-03-18T22:08:55.671Z,85.67
2019-03-18T22:11:23.063Z,85.66
2019-03-18T22:13:50.427Z,84.48
2019-03-18T22:16:17.748Z,82.27
2019-03-18T22:18:45.120Z,82.85
2019-03-18T22:21:12.480Z,82.29
2019-03-18T22:23:39.839Z,82.36
2019-03-18T22:26:07.143Z,82.14
2019-03-18T22:28:34.530Z,83.29
2019-03-18T22:31:01.872Z,84.61
2019-03-18T22:33:29.265Z,82.98
2019-03-18T22:35:56.563Z,82.54
2019-03-18T22:38:25.147Z,83.21
2019-03-18T22:40:52.471Z,84.30
2019-03-18T22:43:19.930Z,84.61
2019-03-18T22:45:47.390Z,84.99
2019-03-18T22:48:14.707Z,84.53
2019-03-18T22:50:42.093Z,83.75
2019-03-18T22:53:09.414Z,82.93
2019-03-18T22:55:36.795Z,83.49
2019-03-18T22:58:04.223Z,83.08
2019-03-18T23:00:43.833Z,85.63
2019-03-18T23:03:11.137Z,85.59
2019-03-18T23:05:38.627Z,85.07
2019-03-18T23:08:05.946Z,85.97
2019-03-18T23:10:33.263Z,85.09
2019-03-18T23:13:00.576Z,85.38
2019-03-18T23:15:27.873Z,85.54
2019-03-18T23:17:55.577Z,85.38
2019-03-18T23:20:22.904Z,85.07
2019-03-18T23:22:50.175Z,85.18
2019-03-18T23:25:17.524Z,85.32
2019-03-18T23:27:44.813Z,84.62
2019-03-18T23:30:12.121Z,85.58
2019-03-18T23:32:39.470Z,84.15
2019-03-18T23:35:06.864Z,83.79
2019-03-18T23:37:34.212Z,84.44
2019-03-18T23:40:01.558Z,85.12
2019-03-18T23:42:28.923Z,84.80
2019-03-18T23:44:56.257Z,85.20
2019-03-18T23:47:23.571Z,84.75
2019-03-18T23:49:50.886Z,84.49
2019-03-18T23:52:18.203Z,83.56
2019-03-18T23:54:45.545Z,84.28
2019-03-18T23:57:12.863Z,85.08
2019-03-18T23:59:40.191Z,85.54
